Řízení letového provozu České republiky  
Aktualizace dat:  22.08.2014 21:37:22 UTC English version
   METEO Zobrazení stránky:  22.08.2014 21:37:55 UTC  
vysvětlivky
METAR EDDB 222120Z 18007KT CAVOK 14/07 Q1011 NOSIG=
METAR EDDC 222120Z 19006KT CAVOK 14/07 Q1013=
METAR EDDE 222120Z 19006KT CAVOK 13/06 Q1013=
METAR EDDF 222120Z 21006KT CAVOK 16/08 Q1013 NOSIG=
METAR EDDM 222120Z VRB01KT CAVOK 11/09 Q1016 NOSIG=
METAR EDDN 222120Z VRB01KT CAVOK 13/08 Q1015=
METAR EDDP 222120Z 19006KT CAVOK 15/06 Q1013 NOSIG=
METAR EDDT 222120Z 19007KT CAVOK 17/05 Q1011=
METAR EDQM 222120Z AUTO 19004KT 9999NDV NCD 09/06 Q1015=
METAR EPBY 222130Z 17004KT CAVOK 16/08 Q1012 =
METAR EPGD 222130Z 18004KT CAVOK 14/07 Q1012 =
METAR EPKK 222130Z 00000KT CAVOK 13/11 Q1016 =
METAR EPKT 222130Z 16003KT 130V190 CAVOK 15/11 Q1015 =
METAR EPLL 222130Z 13003KT CAVOK 13/10 Q1014 =
METAR EPPO 222130Z 21007KT CAVOK 17/09 Q1012 =
METAR EPRZ 222130Z 08004KT CAVOK 15/11 Q1017 =
METAR EPWA 222130Z 17004KT CAVOK 14/10 Q1015 NOSIG=
METAR EPWR 222130Z 13005KT 120V190 9999 FEW036CB 17/11 Q1013 =
METAR LHBP 222130Z VRB02KT CAVOK 14/12 Q1017 NOSIG=
METAR LHSM 221645Z 08003KT 9999 FEW020 SCT200 21/16 Q1016 NOSIG=
METAR COR LKCV 222100Z 25004KT CAVOK 15/13 Q1014 RETS NOSIG=
METAR LKKB 222100Z 24005KT CAVOK 16/09 Q1014 NOSIG=
METAR LKKU NIL
METAR LKKV 222100Z 00000KT CAVOK 09/05 Q1015 RMK REG QNH 1011=
METAR LKLN 222100Z AUTO 00000KT CAVOK 12/09 Q1015=
METAR LKMT 222130Z 22003KT CAVOK 13/11 Q1016 NOSIG=
METAR LKNA 222100Z VRB02KT CAVOK 15/13 Q1016=
SPECI LKPD 222123Z 23005KT CAVOK 15/13 Q1014 RETS =
METAR LKPR 222130Z 20007KT CAVOK 13/09 Q1014 NOSIG=
METAR LKTB 222130Z 06005KT 9999 -RA SCT033 16/12 Q1015 NOSIG=
METAR LKVO NIL
METAR LOWI 222120Z AUTO VRB01KT 9999 SCT048 BKN060 16/13 Q1016=
METAR LOWL 222120Z AUTO 21002KT 9999 FEW048 BKN100 16/11 Q1015=
METAR LOWS 222120Z 15006KT 9999 -SHRA FEW047 SCT053 BKN062 16/14 Q1016 NOSIG=
METAR LOWW 222120Z 14006KT 9999 FEW060 BKN120 17/15 Q1015 NOSIG=
METAR LZIB 222130Z VRB01KT CAVOK 16/13 Q1016=
METAR LZKZ 222130Z 04001KT CAVOK 13/10 Q1017=
METAR LZPP 222130Z AUTO 36003KT 9999 SCT048/// BKN100/// BKN190/// 13/12 Q1016=
METAR LZSL 222130Z 00000KT 9999 SCT050 13/11 Q1017=
METAR LZTT 222130Z 00000KT 9999 FEW066 10/08 Q1018=
METAR LZZI 222130Z 00000KT 9999 BKN047 12/11 Q1017=